createdAt,value
2022-09-27T00:00:01.350Z,0.00
2022-09-27T00:01:01.510Z,0.00
2022-09-27T00:02:01.722Z,0.00
2022-09-27T00:03:02.006Z,0.00
2022-09-27T00:04:02.598Z,0.00
2022-09-27T00:05:03.244Z,0.00
2022-09-27T00:06:02.351Z,0.00
2022-09-27T00:07:02.499Z,0.00
2022-09-27T00:08:02.651Z,0.00
2022-09-27T00:09:02.807Z,0.00
2022-09-27T00:10:03.124Z,0.00
2022-09-27T00:11:04.104Z,0.00
2022-09-27T00:12:04.102Z,0.00
2022-09-27T00:13:03.477Z,0.00
2022-09-27T00:14:03.606Z,0.00
2022-09-27T00:15:03.751Z,0.00
2022-09-27T00:16:04.021Z,0.00
2022-09-27T00:17:04.616Z,0.00
2022-09-27T00:18:04.619Z,0.00
2022-09-27T00:19:05.133Z,0.00
2022-09-27T00:20:05.603Z,0.00
2022-09-27T00:21:04.866Z,0.00
2022-09-27T00:22:05.012Z,0.00
2022-09-27T00:23:05.159Z,0.00
2022-09-27T00:24:05.273Z,0.00
2022-09-27T00:25:05.426Z,0.00
2022-09-27T00:26:05.616Z,0.00
2022-09-27T00:27:05.771Z,0.00
2022-09-27T00:28:05.922Z,0.00
2022-09-27T00:29:06.089Z,0.00
2022-09-27T00:30:07.104Z,0.00
2022-09-27T00:31:06.657Z,0.00
2022-09-27T00:32:06.466Z,0.00
2022-09-27T00:33:07.607Z,0.00
2022-09-27T00:34:06.826Z,0.00
2022-09-27T00:35:06.981Z,0.00
2022-09-27T00:36:07.609Z,0.00
2022-09-27T00:37:07.368Z,0.00
2022-09-27T00:38:07.488Z,0.00
2022-09-27T00:39:07.631Z,0.00
2022-09-27T00:40:07.792Z,0.00
2022-09-27T00:41:08.005Z,0.00
2022-09-27T00:42:08.125Z,0.00
2022-09-27T00:43:08.291Z,0.00
2022-09-27T00:44:08.648Z,0.00
2022-09-27T00:45:08.693Z,0.00
2022-09-27T00:46:08.962Z,0.00
2022-09-27T00:47:09.030Z,0.00
2022-09-27T00:48:09.192Z,0.00
2022-09-27T00:49:09.374Z,0.00
2022-09-27T00:50:09.502Z,0.00
2022-09-27T00:51:09.661Z,0.00
2022-09-27T00:52:10.124Z,0.00
2022-09-27T00:53:10.018Z,0.00
2022-09-27T00:54:10.158Z,0.00
2022-09-27T00:55:11.116Z,0.00
2022-09-27T00:56:10.472Z,0.00
2022-09-27T00:57:10.638Z,0.00
2022-09-27T00:58:11.610Z,0.00
2022-09-27T00:59:11.005Z,0.00
2022-09-27T01:00:11.180Z,0.00
2022-09-27T01:01:11.348Z,0.00
2022-09-27T01:02:11.611Z,0.00
2022-09-27T01:03:11.647Z,0.00
2022-09-27T01:04:12.611Z,0.00
2022-09-27T01:05:11.992Z,0.00
2022-09-27T01:06:12.144Z,0.00
2022-09-27T01:07:12.249Z,0.00
2022-09-27T01:08:12.479Z,0.00
2022-09-27T01:09:12.833Z,0.00
2022-09-27T01:10:12.903Z,0.00
2022-09-27T01:11:13.614Z,0.00
2022-09-27T01:12:13.234Z,0.00
2022-09-27T01:13:13.364Z,0.00
2022-09-27T01:14:13.495Z,0.00
2022-09-27T01:15:13.669Z,0.00
2022-09-27T01:16:14.661Z,0.00
2022-09-27T01:17:13.945Z,0.00
2022-09-27T01:18:14.131Z,0.00
2022-09-27T01:19:14.352Z,0.00
2022-09-27T01:20:14.437Z,0.00
2022-09-27T01:21:14.569Z,0.00
2022-09-27T01:22:14.698Z,0.00
2022-09-27T01:23:14.868Z,0.00
2022-09-27T01:24:15.004Z,0.00
2022-09-27T01:25:15.157Z,0.00
2022-09-27T01:26:15.292Z,0.00
2022-09-27T01:27:15.436Z,0.00
2022-09-27T01:28:15.637Z,0.00
2022-09-27T01:29:15.868Z,0.00
2022-09-27T01:30:16.621Z,0.00
2022-09-27T01:31:16.202Z,0.00
2022-09-27T01:32:16.307Z,0.00
2022-09-27T01:33:16.482Z,0.00
2022-09-27T01:34:16.638Z,0.00
2022-09-27T01:35:16.792Z,0.00
2022-09-27T01:36:16.953Z,0.00
2022-09-27T01:37:17.112Z,0.00
2022-09-27T01:38:17.250Z,0.00
2022-09-27T01:39:18.396Z,0.00
2022-09-27T01:40:17.684Z,0.00
2022-09-27T01:41:17.774Z,0.00
2022-09-27T01:42:22.050Z,0.00
2022-09-27T01:43:19.620Z,0.00
2022-09-27T01:44:18.200Z,0.00
2022-09-27T01:45:18.340Z,0.00
2022-09-27T01:46:18.540Z,0.00
2022-09-27T01:47:19.627Z,0.00
2022-09-27T01:48:18.875Z,0.00
2022-09-27T01:49:19.624Z,0.00
2022-09-27T01:50:19.303Z,0.00
2022-09-27T01:51:20.135Z,0.00
2022-09-27T01:52:19.615Z,0.00
2022-09-27T01:53:19.759Z,0.00
2022-09-27T01:54:19.891Z,0.00
2022-09-27T01:55:20.135Z,0.00
2022-09-27T01:56:21.128Z,0.00
2022-09-27T01:57:21.125Z,0.00
2022-09-27T01:58:21.123Z,0.00
2022-09-27T01:59:20.654Z,0.00
2022-09-27T02:00:21.634Z,0.00
2022-09-27T02:01:21.036Z,0.00
2022-09-27T02:02:21.308Z,0.00
2022-09-27T02:03:21.415Z,0.00
2022-09-27T02:04:21.565Z,0.00
2022-09-27T02:05:21.746Z,0.00
2022-09-27T02:06:21.888Z,0.00
2022-09-27T02:07:22.036Z,0.00
2022-09-27T02:08:22.169Z,0.00
2022-09-27T02:09:22.315Z,0.00
2022-09-27T02:10:22.480Z,0.00
2022-09-27T02:11:23.633Z,0.00
2022-09-27T02:12:22.872Z,0.00
2022-09-27T02:13:23.032Z,0.00
2022-09-27T02:14:23.153Z,0.00
2022-09-27T02:15:23.271Z,0.00
2022-09-27T02:16:23.478Z,0.00
2022-09-27T02:17:23.568Z,0.00
2022-09-27T02:18:23.749Z,0.00
2022-09-27T02:19:23.871Z,0.00
2022-09-27T02:20:24.027Z,0.00
2022-09-27T02:21:25.138Z,0.00
2022-09-27T02:22:24.642Z,0.00
2022-09-27T02:23:24.539Z,0.00
2022-09-27T02:24:24.725Z,0.00
2022-09-27T02:25:24.886Z,0.00
2022-09-27T02:26:25.036Z,0.00
2022-09-27T02:27:25.157Z,0.00
2022-09-27T02:28:25.312Z,0.00
2022-09-27T02:29:25.434Z,0.00
2022-09-27T02:30:25.576Z,0.00
2022-09-27T02:31:26.711Z,0.00
2022-09-27T02:32:25.861Z,0.00
2022-09-27T02:33:26.144Z,0.00
2022-09-27T02:34:26.116Z,0.00
2022-09-27T02:35:26.370Z,0.00
2022-09-27T02:36:26.503Z,0.00
2022-09-27T02:37:27.140Z,0.00
2022-09-27T02:38:26.756Z,0.00
2022-09-27T02:39:26.883Z,0.00
2022-09-27T02:40:27.084Z,0.00
2022-09-27T02:41:27.272Z,0.00
2022-09-27T02:42:27.403Z,0.00
2022-09-27T02:43:28.141Z,0.00
2022-09-27T02:44:28.638Z,0.00
2022-09-27T02:45:28.644Z,0.00
2022-09-27T02:46:28.223Z,0.00
2022-09-27T02:47:28.281Z,0.00
2022-09-27T02:48:28.414Z,0.00
2022-09-27T02:49:28.610Z,0.00
2022-09-27T02:50:29.643Z,0.00
2022-09-27T02:51:28.920Z,0.00
2022-09-27T02:52:29.100Z,0.00
2022-09-27T02:53:29.253Z,0.00
2022-09-27T02:54:29.411Z,0.00
2022-09-27T02:55:29.566Z,0.00
2022-09-27T02:56:29.749Z,0.00
2022-09-27T02:57:29.952Z,0.00
2022-09-27T02:58:30.127Z,0.00
2022-09-27T02:59:30.290Z,0.00
2022-09-27T03:00:30.459Z,0.00
2022-09-27T03:01:31.734Z,0.00
2022-09-27T03:02:30.989Z,0.00
2022-09-27T03:03:30.974Z,0.00
2022-09-27T03:04:32.166Z,0.00
2022-09-27T03:05:31.305Z,0.00
2022-09-27T03:06:31.481Z,0.00
2022-09-27T03:07:32.689Z,0.00
2022-09-27T03:08:31.854Z,0.00
2022-09-27T03:09:32.650Z,0.00
2022-09-27T03:10:32.206Z,0.00
2022-09-27T03:11:32.383Z,0.00
2022-09-27T03:12:32.566Z,0.00
2022-09-27T03:13:32.853Z,0.00
2022-09-27T03:14:32.877Z,0.00
2022-09-27T03:15:33.641Z,0.00
2022-09-27T03:16:34.233Z,0.00
2022-09-27T03:17:34.147Z,0.00
2022-09-27T03:18:33.547Z,0.00
2022-09-27T03:19:33.693Z,0.00
2022-09-27T03:20:34.648Z,0.00
2022-09-27T03:21:34.651Z,0.00
2022-09-27T03:22:34.160Z,0.00
2022-09-27T03:23:34.329Z,0.00
2022-09-27T03:24:34.488Z,0.00
2022-09-27T03:25:34.658Z,0.00
2022-09-27T03:26:34.828Z,0.00
2022-09-27T03:27:34.991Z,0.00
2022-09-27T03:28:35.158Z,0.00
2022-09-27T03:29:35.325Z,0.00
2022-09-27T03:30:35.676Z,0.00
2022-09-27T03:31:35.619Z,0.00
2022-09-27T03:32:35.810Z,0.00
2022-09-27T03:33:35.960Z,0.00
2022-09-27T03:34:36.648Z,0.00
2022-09-27T03:35:36.311Z,0.00
2022-09-27T03:36:36.466Z,0.00
2022-09-27T03:38:10.007Z,0.00
2022-09-27T03:38:37.689Z,0.00
2022-09-27T03:39:36.939Z,0.00
2022-09-27T03:40:37.157Z,0.00
2022-09-27T03:41:37.261Z,0.00
2022-09-27T03:42:37.376Z,0.00
2022-09-27T03:43:37.526Z,0.00
2022-09-27T03:44:37.678Z,0.00
2022-09-27T03:45:37.820Z,0.00
2022-09-27T03:46:38.279Z,0.00
2022-09-27T03:47:38.128Z,0.00
2022-09-27T03:48:38.253Z,0.00
2022-09-27T03:49:38.375Z,0.00
2022-09-27T03:50:38.539Z,0.00
2022-09-27T03:51:38.686Z,0.00
2022-09-27T03:52:38.841Z,0.00
2022-09-27T03:53:38.968Z,0.00
2022-09-27T03:54:39.103Z,0.00
2022-09-27T03:55:39.271Z,0.00
2022-09-27T03:56:39.398Z,0.00
2022-09-27T03:57:40.197Z,0.00
2022-09-27T03:58:39.672Z,0.00
2022-09-27T03:59:39.821Z,0.00
2022-09-27T04:00:40.701Z,0.00
2022-09-27T04:01:40.216Z,0.00
2022-09-27T04:02:40.434Z,0.00
2022-09-27T04:03:40.514Z,0.00
2022-09-27T04:04:40.642Z,0.00
2022-09-27T04:05:41.708Z,0.00
2022-09-27T04:06:40.947Z,0.00
2022-09-27T04:07:41.213Z,0.00
2022-09-27T04:08:41.212Z,0.00
2022-09-27T04:09:44.725Z,0.00
2022-09-27T04:10:42.491Z,0.00
2022-09-27T04:11:41.631Z,0.00
2022-09-27T04:12:41.779Z,0.00
2022-09-27T04:13:41.917Z,0.00
2022-09-27T04:14:42.061Z,0.00
2022-09-27T04:15:42.216Z,0.00
2022-09-27T04:16:42.414Z,0.00
2022-09-27T04:17:42.519Z,0.00
2022-09-27T04:18:42.694Z,0.00
2022-09-27T04:19:42.861Z,0.00
2022-09-27T04:20:43.704Z,0.00
2022-09-27T04:21:43.714Z,0.00
2022-09-27T04:22:43.356Z,0.00
2022-09-27T04:23:43.560Z,0.00
2022-09-27T04:24:44.212Z,0.00
2022-09-27T04:25:44.215Z,0.00
2022-09-27T04:26:44.699Z,0.00
2022-09-27T04:27:44.214Z,0.00
2022-09-27T04:28:45.206Z,0.00
2022-09-27T04:29:44.590Z,0.00
2022-09-27T04:30:44.816Z,0.00
2022-09-27T04:31:45.706Z,0.00
2022-09-27T04:32:45.087Z,0.00
2022-09-27T04:33:45.221Z,0.00
2022-09-27T04:34:46.170Z,0.00
2022-09-27T04:35:46.650Z,0.00
2022-09-27T04:36:45.821Z,0.00
2022-09-27T04:37:46.021Z,0.00
2022-09-27T04:38:46.188Z,0.00
2022-09-27T04:39:47.206Z,0.00
2022-09-27T04:40:47.260Z,0.00
2022-09-27T04:41:46.715Z,0.00
2022-09-27T04:42:46.889Z,0.00
2022-09-27T04:43:47.065Z,0.00
2022-09-27T04:44:48.203Z,0.00
2022-09-27T04:45:47.537Z,0.00
2022-09-27T04:46:47.660Z,0.00
2022-09-27T04:47:48.238Z,0.00
2022-09-27T04:48:48.016Z,0.00
2022-09-27T04:49:48.708Z,0.00
2022-09-27T04:50:48.392Z,0.00
2022-09-27T04:51:48.559Z,0.00
2022-09-27T04:52:48.773Z,0.00
2022-09-27T04:53:48.944Z,0.00
2022-09-27T04:54:49.098Z,0.00
2022-09-27T04:55:49.269Z,0.00
2022-09-27T04:56:49.427Z,0.00
2022-09-27T04:57:49.606Z,0.00
2022-09-27T04:58:49.775Z,0.00
2022-09-27T04:59:49.912Z,0.00
2022-09-27T05:00:50.070Z,0.00
2022-09-27T05:01:50.248Z,0.00
2022-09-27T05:02:51.227Z,0.00
2022-09-27T05:03:50.627Z,0.00
2022-09-27T05:04:50.774Z,0.00
2022-09-27T05:05:51.226Z,0.00
2022-09-27T05:06:56.292Z,0.00
2022-09-27T05:07:53.226Z,0.00
2022-09-27T05:08:51.731Z,0.00
2022-09-27T05:09:51.657Z,0.00
2022-09-27T05:10:51.857Z,0.00
2022-09-27T05:11:52.718Z,0.00
2022-09-27T05:12:52.261Z,0.00
2022-09-27T05:13:52.732Z,0.00
2022-09-27T05:14:52.660Z,0.00
2022-09-27T05:15:52.836Z,0.00
2022-09-27T05:16:53.045Z,0.00
2022-09-27T05:17:53.212Z,0.00
2022-09-27T05:18:53.390Z,0.00
2022-09-27T05:19:53.550Z,0.00
2022-09-27T05:20:54.223Z,0.00
2022-09-27T05:21:54.228Z,0.00
2022-09-27T05:22:54.033Z,0.00
2022-09-27T05:23:54.724Z,0.00
2022-09-27T05:24:54.378Z,0.00
2022-09-27T05:25:54.524Z,0.00
2022-09-27T05:26:54.663Z,0.00
2022-09-27T05:27:54.854Z,0.00
2022-09-27T05:28:55.031Z,0.00
2022-09-27T05:29:55.198Z,0.00
2022-09-27T05:30:55.384Z,0.00
2022-09-27T05:31:55.555Z,0.00
2022-09-27T05:32:55.722Z,0.00
2022-09-27T05:33:56.834Z,0.00
2022-09-27T05:34:56.718Z,0.00
2022-09-27T05:35:56.738Z,0.00
2022-09-27T05:36:56.351Z,0.00
2022-09-27T05:37:56.593Z,0.00
2022-09-27T05:38:56.715Z,0.00
2022-09-27T05:39:56.886Z,0.00
2022-09-27T05:40:57.060Z,0.00
2022-09-27T05:41:57.742Z,0.00
2022-09-27T05:42:58.226Z,0.00
2022-09-27T05:43:57.573Z,0.00
2022-09-27T05:44:57.735Z,0.00
2022-09-27T05:45:58.269Z,0.00
2022-09-27T05:46:58.027Z,0.00
2022-09-27T05:47:58.720Z,0.00
2022-09-27T05:48:58.344Z,0.00
2022-09-27T05:49:59.232Z,0.00
2022-09-27T05:50:58.733Z,0.00
2022-09-27T05:51:58.876Z,0.00
2022-09-27T05:52:59.007Z,0.00
2022-09-27T05:53:59.115Z,0.00
2022-09-27T05:55:00.229Z,0.00
2022-09-27T05:56:00.222Z,0.00
2022-09-27T05:56:59.695Z,0.00
2022-09-27T05:58:00.733Z,0.00
2022-09-27T05:58:59.948Z,0.00
2022-09-27T06:00:00.153Z,0.00
2022-09-27T06:01:00.394Z,5.62
2022-09-27T06:02:01.317Z,5.62
2022-09-27T06:03:00.754Z,5.62
2022-09-27T06:04:00.866Z,5.62
2022-09-27T06:05:00.993Z,5.62
2022-09-27T06:06:01.223Z,11.25
2022-09-27T06:07:02.231Z,11.25
2022-09-27T06:08:01.603Z,16.88
2022-09-27T06:09:01.817Z,11.25
2022-09-27T06:10:02.723Z,11.25
2022-09-27T06:11:02.077Z,5.62
2022-09-27T06:12:02.253Z,5.62
2022-09-27T06:13:02.399Z,5.62
2022-09-27T06:14:02.559Z,5.62
2022-09-27T06:15:02.671Z,0.00
2022-09-27T06:16:02.850Z,0.00
2022-09-27T06:17:03.925Z,5.62
2022-09-27T06:18:03.108Z,5.62
2022-09-27T06:19:03.298Z,5.62
2022-09-27T06:20:03.452Z,11.25
2022-09-27T06:21:03.744Z,11.25
2022-09-27T06:22:03.773Z,11.25
2022-09-27T06:23:04.728Z,11.25
2022-09-27T06:24:04.729Z,11.25
2022-09-27T06:25:04.223Z,11.25
2022-09-27T06:26:04.401Z,16.88
2022-09-27T06:27:04.569Z,22.50
2022-09-27T06:28:04.736Z,22.50
2022-09-27T06:29:05.240Z,28.12
2022-09-27T06:30:05.151Z,22.50
2022-09-27T06:31:05.371Z,28.12
2022-09-27T06:32:05.465Z,28.12
2022-09-27T06:33:05.616Z,22.50
2022-09-27T06:34:05.755Z,22.50
2022-09-27T06:35:05.895Z,28.12
2022-09-27T06:36:06.121Z,28.12
2022-09-27T06:37:06.268Z,28.12
2022-09-27T06:38:06.425Z,33.75
2022-09-27T06:39:06.571Z,39.38
2022-09-27T06:40:07.252Z,39.38
2022-09-27T06:41:06.882Z,28.12
2022-09-27T06:42:07.772Z,22.50
2022-09-27T06:43:07.162Z,28.12
2022-09-27T06:44:07.336Z,33.75
2022-09-27T06:45:07.488Z,39.38
2022-09-27T06:46:07.736Z,39.38
2022-09-27T06:47:07.825Z,45.00
2022-09-27T06:48:08.733Z,95.62
2022-09-27T06:49:08.111Z,90.00
2022-09-27T06:50:08.263Z,354.38
2022-09-27T06:51:08.431Z,860.62
2022-09-27T06:52:08.752Z,101.25
2022-09-27T06:53:08.785Z,73.12
2022-09-27T06:54:08.937Z,90.00
2022-09-27T06:55:09.123Z,73.12
2022-09-27T06:56:09.259Z,73.12
2022-09-27T06:57:09.428Z,73.12
2022-09-27T06:58:09.581Z,61.88
2022-09-27T06:59:09.838Z,78.75
2022-09-27T07:00:09.953Z,112.50
2022-09-27T07:01:10.278Z,129.38
2022-09-27T07:02:10.392Z,180.00
2022-09-27T07:03:10.484Z,157.50
2022-09-27T07:04:10.654Z,646.88
2022-09-27T07:05:10.803Z,1811.25
2022-09-27T07:06:10.982Z,613.12
2022-09-27T07:07:11.204Z,556.88
2022-09-27T07:08:11.366Z,1153.12
2022-09-27T07:09:11.607Z,1951.88
2022-09-27T07:10:11.665Z,601.88
2022-09-27T07:11:11.843Z,990.00
2022-09-27T07:12:12.761Z,2064.38
2022-09-27T07:13:12.177Z,2266.88
2022-09-27T07:14:12.366Z,1316.25
2022-09-27T07:15:12.558Z,455.62
2022-09-27T07:16:12.774Z,388.12
2022-09-27T07:17:13.765Z,185.62
2022-09-27T07:18:13.743Z,95.62
2022-09-27T07:19:13.273Z,73.12
2022-09-27T07:20:13.416Z,73.12
2022-09-27T07:21:14.253Z,78.75
2022-09-27T07:22:13.812Z,78.75
2022-09-27T07:23:13.958Z,84.38
2022-09-27T07:24:14.098Z,90.00
2022-09-27T07:25:14.774Z,95.62
2022-09-27T07:26:14.405Z,106.88
2022-09-27T07:27:14.761Z,118.12
2022-09-27T07:28:18.471Z,196.88
2022-09-27T07:29:16.982Z,483.75
2022-09-27T07:30:16.178Z,61.88
2022-09-27T07:31:15.796Z,50.62
2022-09-27T07:32:15.547Z,50.62
2022-09-27T07:33:15.679Z,39.38
2022-09-27T07:34:16.772Z,33.75
2022-09-27T07:35:16.016Z,33.75
2022-09-27T07:36:16.168Z,33.75
2022-09-27T07:37:16.318Z,33.75
2022-09-27T07:38:17.247Z,39.38
2022-09-27T07:39:17.372Z,39.38
2022-09-27T07:40:17.292Z,28.12
2022-09-27T07:41:16.963Z,28.12
2022-09-27T07:42:17.261Z,28.12
2022-09-27T07:43:17.252Z,28.12
2022-09-27T07:44:18.254Z,33.75
2022-09-27T07:45:17.501Z,33.75
2022-09-27T07:46:18.270Z,39.38
2022-09-27T07:47:17.818Z,39.38
2022-09-27T07:48:18.749Z,39.38
2022-09-27T07:49:18.142Z,39.38
2022-09-27T07:50:19.251Z,45.00
2022-09-27T07:51:19.249Z,50.62
2022-09-27T07:52:18.648Z,50.62
2022-09-27T07:53:18.793Z,50.62
2022-09-27T07:54:18.949Z,45.00
2022-09-27T07:55:19.087Z,39.38
2022-09-27T07:56:19.801Z,33.75
2022-09-27T07:57:19.427Z,33.75
2022-09-27T07:58:19.579Z,33.75
2022-09-27T07:59:19.750Z,39.38
2022-09-27T08:00:19.897Z,39.38
2022-09-27T08:01:20.164Z,39.38
2022-09-27T08:02:20.234Z,39.38
2022-09-27T08:03:21.257Z,45.00
2022-09-27T08:04:21.486Z,45.00
2022-09-27T08:05:20.613Z,50.62
2022-09-27T08:06:20.760Z,56.25
2022-09-27T08:07:21.917Z,56.25
2022-09-27T08:08:21.753Z,61.88
2022-09-27T08:09:21.237Z,50.62
2022-09-27T08:10:22.255Z,50.62
2022-09-27T08:11:21.629Z,45.00
2022-09-27T08:12:22.256Z,45.00
2022-09-27T08:13:21.976Z,50.62
2022-09-27T08:14:22.210Z,50.62
2022-09-27T08:15:22.322Z,61.88
2022-09-27T08:16:22.561Z,61.88
2022-09-27T08:17:22.615Z,56.25
2022-09-27T08:18:24.278Z,67.50
2022-09-27T08:19:23.769Z,61.88
2022-09-27T08:20:23.008Z,56.25
2022-09-27T08:21:23.139Z,56.25
2022-09-27T08:22:23.259Z,50.62
2022-09-27T08:23:23.398Z,50.62
2022-09-27T08:24:23.504Z,50.62
2022-09-27T08:25:24.347Z,50.62
2022-09-27T08:26:23.843Z,50.62
2022-09-27T08:27:23.961Z,50.62
2022-09-27T08:28:24.223Z,56.25
2022-09-27T08:29:24.346Z,56.25
2022-09-27T08:30:25.260Z,56.25
2022-09-27T08:31:25.326Z,56.25
2022-09-27T08:32:24.741Z,56.25
2022-09-27T08:33:28.621Z,56.25
2022-09-27T08:34:26.768Z,61.88
2022-09-27T08:35:25.360Z,67.50
2022-09-27T08:36:25.615Z,67.50
2022-09-27T08:37:25.840Z,61.88
2022-09-27T08:38:26.091Z,61.88
2022-09-27T08:39:26.208Z,61.88
2022-09-27T08:40:26.336Z,61.88
2022-09-27T08:41:27.261Z,61.88
2022-09-27T08:42:26.631Z,61.88
2022-09-27T08:43:27.274Z,73.12
2022-09-27T08:44:27.764Z,67.50
2022-09-27T08:45:27.189Z,61.88
2022-09-27T08:46:27.367Z,61.88
2022-09-27T08:47:28.270Z,56.25
2022-09-27T08:48:27.762Z,61.88
2022-09-27T08:49:27.930Z,67.50
2022-09-27T08:50:28.140Z,61.88
2022-09-27T08:51:28.292Z,61.88
2022-09-27T08:52:28.428Z,56.25
2022-09-27T08:53:28.556Z,56.25
2022-09-27T08:54:28.692Z,56.25
2022-09-27T08:55:28.837Z,50.62
2022-09-27T08:56:29.280Z,56.25
2022-09-27T08:57:29.782Z,56.25
2022-09-27T08:58:29.275Z,56.25
2022-09-27T08:59:29.399Z,61.88
2022-09-27T09:00:29.650Z,73.12
2022-09-27T09:01:29.820Z,90.00
2022-09-27T09:02:30.027Z,95.62
2022-09-27T09:03:30.769Z,95.62
2022-09-27T09:04:31.272Z,90.00
2022-09-27T09:05:30.616Z,73.12
2022-09-27T09:06:30.759Z,73.12
2022-09-27T09:07:30.866Z,73.12
2022-09-27T09:08:31.000Z,78.75
2022-09-27T09:09:31.772Z,78.75
2022-09-27T09:10:31.289Z,78.75
2022-09-27T09:11:31.428Z,95.62
2022-09-27T09:12:31.599Z,95.62
2022-09-27T09:13:31.737Z,90.00
2022-09-27T09:14:31.899Z,84.38
2022-09-27T09:15:32.781Z,73.12
2022-09-27T09:16:32.320Z,78.75
2022-09-27T09:17:32.477Z,84.38
2022-09-27T09:18:33.201Z,84.38
2022-09-27T09:19:32.759Z,84.38
2022-09-27T09:20:33.789Z,84.38
2022-09-27T09:21:33.133Z,73.12
2022-09-27T09:22:33.261Z,56.25
2022-09-27T09:23:34.285Z,56.25
2022-09-27T09:24:33.649Z,61.88
2022-09-27T09:25:33.781Z,67.50
2022-09-27T09:26:33.923Z,67.50
2022-09-27T09:27:34.779Z,67.50
2022-09-27T09:28:34.303Z,73.12
2022-09-27T09:29:34.492Z,73.12
2022-09-27T09:30:34.659Z,78.75
2022-09-27T09:31:34.863Z,78.75
2022-09-27T09:32:35.073Z,95.62
2022-09-27T09:33:35.239Z,118.12
2022-09-27T09:34:35.442Z,135.00
2022-09-27T09:35:35.568Z,106.88
2022-09-27T09:36:36.282Z,101.25
2022-09-27T09:37:35.929Z,112.50
2022-09-27T09:38:36.095Z,78.75
2022-09-27T09:39:36.277Z,73.12
2022-09-27T09:40:36.473Z,106.88
2022-09-27T09:41:37.277Z,135.00
2022-09-27T09:42:37.280Z,146.25
2022-09-27T09:43:36.970Z,95.62
2022-09-27T09:44:37.782Z,90.00
2022-09-27T09:45:37.333Z,106.88
2022-09-27T09:46:41.103Z,151.88
2022-09-27T09:47:38.675Z,157.50
2022-09-27T09:48:37.817Z,168.75
2022-09-27T09:49:37.984Z,168.75
2022-09-27T09:50:38.181Z,140.62
2022-09-27T09:51:38.387Z,118.12
2022-09-27T09:52:38.543Z,106.88
2022-09-27T09:53:38.720Z,90.00
2022-09-27T09:54:38.883Z,84.38
2022-09-27T09:55:39.057Z,73.12
2022-09-27T09:56:39.245Z,73.12
2022-09-27T09:57:39.423Z,73.12
2022-09-27T09:58:39.592Z,84.38
2022-09-27T09:59:40.334Z,90.00
2022-09-27T10:00:40.180Z,84.38
2022-09-27T10:01:40.204Z,84.38
2022-09-27T10:02:40.399Z,90.00
2022-09-27T10:03:40.585Z,95.62
2022-09-27T10:04:40.771Z,95.62
2022-09-27T10:05:41.789Z,95.62
2022-09-27T10:06:41.073Z,95.62
2022-09-27T10:07:41.220Z,106.88
2022-09-27T10:08:41.392Z,112.50
2022-09-27T10:09:42.284Z,95.62
2022-09-27T10:10:41.673Z,90.00
2022-09-27T10:11:41.829Z,78.75
2022-09-27T10:12:41.980Z,84.38
2022-09-27T10:13:42.150Z,84.38
2022-09-27T10:14:42.799Z,84.38
2022-09-27T10:15:43.287Z,90.00
2022-09-27T10:16:43.303Z,90.00
2022-09-27T10:17:43.793Z,95.62
2022-09-27T10:18:47.656Z,101.25
2022-09-27T10:19:45.330Z,106.88
2022-09-27T10:20:44.298Z,106.88
2022-09-27T10:21:43.547Z,95.62
2022-09-27T10:22:43.705Z,95.62
2022-09-27T10:23:43.870Z,90.00
2022-09-27T10:24:44.034Z,95.62
2022-09-27T10:25:44.217Z,90.00
2022-09-27T10:26:44.332Z,90.00
2022-09-27T10:27:44.573Z,84.38
2022-09-27T10:28:45.288Z,84.38
2022-09-27T10:29:45.793Z,84.38
2022-09-27T10:30:45.306Z,84.38
2022-09-27T10:31:45.279Z,90.00
2022-09-27T10:32:45.330Z,101.25
2022-09-27T10:33:47.299Z,95.62
2022-09-27T10:34:45.650Z,106.88
2022-09-27T10:35:45.816Z,106.88
2022-09-27T10:36:45.951Z,112.50
2022-09-27T10:37:46.069Z,129.38
2022-09-27T10:38:46.208Z,118.12
2022-09-27T10:39:48.313Z,112.50
2022-09-27T10:40:46.873Z,95.62
2022-09-27T10:41:47.306Z,84.38
2022-09-27T10:42:46.815Z,101.25
2022-09-27T10:43:46.968Z,101.25
2022-09-27T10:44:47.810Z,106.88
2022-09-27T10:45:48.383Z,123.75
2022-09-27T10:46:47.519Z,151.88
2022-09-27T10:47:47.659Z,174.38
2022-09-27T10:48:49.293Z,174.38
2022-09-27T10:49:47.933Z,213.75
2022-09-27T10:50:50.880Z,168.75
2022-09-27T10:51:49.797Z,185.62
2022-09-27T10:52:48.418Z,163.12
2022-09-27T10:53:48.584Z,140.62
2022-09-27T10:54:48.760Z,140.62
2022-09-27T10:55:48.922Z,129.38
2022-09-27T10:56:49.075Z,174.38
2022-09-27T10:57:49.270Z,146.25
2022-09-27T10:58:49.480Z,157.50
2022-09-27T10:59:49.639Z,140.62
2022-09-27T11:00:50.330Z,146.25
2022-09-27T11:01:50.016Z,168.75
2022-09-27T11:02:50.193Z,168.75
2022-09-27T11:03:50.353Z,146.25
2022-09-27T11:04:50.576Z,135.00
2022-09-27T11:05:50.647Z,118.12
2022-09-27T11:06:50.833Z,106.88
2022-09-27T11:07:51.003Z,95.62
2022-09-27T11:08:51.172Z,84.38
2022-09-27T11:09:52.301Z,78.75
2022-09-27T11:10:52.301Z,67.50
2022-09-27T11:11:51.690Z,56.25
2022-09-27T11:12:52.840Z,56.25
2022-09-27T11:13:51.958Z,56.25
2022-09-27T11:14:52.801Z,56.25
2022-09-27T11:15:52.336Z,61.88
2022-09-27T11:16:52.482Z,61.88
2022-09-27T11:17:52.642Z,67.50
2022-09-27T11:18:52.804Z,73.12
2022-09-27T11:19:53.810Z,67.50
2022-09-27T11:20:53.334Z,67.50
2022-09-27T11:21:53.364Z,67.50
2022-09-27T11:22:54.305Z,84.38
2022-09-27T11:23:53.724Z,106.88
2022-09-27T11:24:53.905Z,123.75
2022-09-27T11:25:54.066Z,140.62
2022-09-27T11:26:54.216Z,151.88
2022-09-27T11:27:54.378Z,151.88
2022-09-27T11:28:54.590Z,151.88
2022-09-27T11:29:54.822Z,146.25
2022-09-27T11:30:54.859Z,151.88
2022-09-27T11:31:55.096Z,151.88
2022-09-27T11:32:55.181Z,146.25
2022-09-27T11:33:55.311Z,151.88
2022-09-27T11:34:55.440Z,146.25
2022-09-27T11:35:55.582Z,140.62
2022-09-27T11:36:55.829Z,129.38
2022-09-27T11:37:55.976Z,118.12
2022-09-27T11:38:59.304Z,106.88
2022-09-27T11:39:58.352Z,106.88
2022-09-27T11:40:56.681Z,101.25
2022-09-27T11:41:57.312Z,112.50
2022-09-27T11:42:56.926Z,112.50
2022-09-27T11:43:57.064Z,112.50
2022-09-27T11:45:19.762Z,112.50
2022-09-27T11:46:19.241Z,106.88
2022-09-27T11:46:59.931Z,112.50
2022-09-27T11:47:57.956Z,101.25
2022-09-27T11:48:57.950Z,90.00
2022-09-27T11:49:59.835Z,84.38
2022-09-27T11:50:59.032Z,73.12
2022-09-27T11:51:58.437Z,73.12
2022-09-27T11:52:58.636Z,78.75
2022-09-27T11:53:58.779Z,84.38
2022-09-27T11:54:58.940Z,78.75
2022-09-27T11:55:59.090Z,61.88
2022-09-27T11:56:59.268Z,56.25
2022-09-27T11:57:59.446Z,50.62
2022-09-27T11:59:00.386Z,61.88
2022-09-27T11:59:59.829Z,67.50
2022-09-27T12:00:59.992Z,73.12
2022-09-27T12:02:00.208Z,84.38
2022-09-27T12:03:00.308Z,95.62
2022-09-27T12:04:00.420Z,112.50
2022-09-27T12:05:00.828Z,208.12
2022-09-27T12:06:06.328Z,236.25
2022-09-27T12:07:02.933Z,253.12
2022-09-27T12:08:01.818Z,236.25
2022-09-27T12:09:01.340Z,208.12
2022-09-27T12:10:02.318Z,185.62
2022-09-27T12:11:01.686Z,157.50
2022-09-27T12:12:01.841Z,140.62
2022-09-27T12:13:02.014Z,123.75
2022-09-27T12:14:02.339Z,112.50
2022-09-27T12:15:06.613Z,112.50
2022-09-27T12:16:03.639Z,101.25
2022-09-27T12:17:02.782Z,90.00
2022-09-27T12:18:02.950Z,95.62
2022-09-27T12:19:03.132Z,95.62
2022-09-27T12:20:03.320Z,101.25
2022-09-27T12:21:03.469Z,106.88
2022-09-27T12:22:04.323Z,106.88
2022-09-27T12:23:04.326Z,101.25
2022-09-27T12:24:03.951Z,95.62
2022-09-27T12:25:04.123Z,90.00
2022-09-27T12:26:04.279Z,95.62
2022-09-27T12:27:04.414Z,95.62
2022-09-27T12:28:04.564Z,112.50
2022-09-27T12:29:04.738Z,112.50
2022-09-27T12:30:04.861Z,123.75
2022-09-27T12:31:28.118Z,146.25
2022-09-27T12:32:07.351Z,135.00
2022-09-27T12:33:05.465Z,140.62
2022-09-27T12:34:05.611Z,146.25
2022-09-27T12:35:06.322Z,174.38
2022-09-27T12:36:05.959Z,146.25
2022-09-27T12:37:06.842Z,135.00
2022-09-27T12:38:07.330Z,129.38
2022-09-27T12:39:06.579Z,123.75
2022-09-27T12:40:06.718Z,118.12
2022-09-27T12:41:06.880Z,112.50
2022-09-27T12:42:07.837Z,95.62
2022-09-27T12:43:07.186Z,84.38
2022-09-27T12:44:07.370Z,73.12
2022-09-27T12:45:07.508Z,67.50
2022-09-27T12:46:07.903Z,61.88
2022-09-27T12:47:07.840Z,61.88
2022-09-27T12:48:08.826Z,67.50
2022-09-27T12:49:08.326Z,73.12
2022-09-27T12:50:08.412Z,78.75
2022-09-27T12:51:09.332Z,78.75
2022-09-27T12:52:08.675Z,73.12
2022-09-27T12:53:08.836Z,73.12
2022-09-27T12:54:08.957Z,67.50
2022-09-27T12:55:09.100Z,56.25
2022-09-27T12:56:09.280Z,50.62
2022-09-27T12:57:09.411Z,50.62
2022-09-27T12:58:09.845Z,50.62
2022-09-27T12:59:09.809Z,45.00
2022-09-27T13:00:09.861Z,39.38
2022-09-27T13:01:10.101Z,39.38
2022-09-27T13:02:10.259Z,39.38